Anzahl Datensätze: 288
min. Temperatur: 15.6 °C
max. Temperatur: 24.8 °C
max. Windgeschwindigkeit: 43.6 km/h
Niederschlagsumme: 38.6 mm
| Datum |
Zeit |
Temp °C |
Feuchte % |
Taupunkt °C |
Luftdruck hPa |
Wind km/h |
Windrichtung |
Strahlung w/m² |
Niederschlag mm |
|---|---|---|---|---|---|---|---|---|---|
| 08.06.2021 | 00:04 | 16.7 | 93 | 15.6 | 1020.1 | 0.0 | NW | 0 | 0.0 |
| 08.06.2021 | 00:08 | 16.6 | 93 | 15.5 | 1020.1 | 0.0 | NW | 0 | 0.0 |
| 08.06.2021 | 00:14 | 16.7 | 94 | 15.7 | 1020.1 | 0.0 | NW | 0 | 0.0 |
| 08.06.2021 | 00:18 | 16.7 | 93 | 15.6 | 1020.1 | 0.0 | NW | 0 | 0.0 |
| 08.06.2021 | 00:24 | 16.8 | 94 | 15.8 | 1020.2 | 0.0 | NW | 0 | 0.0 |
| 08.06.2021 | 00:28 | 16.7 | 94 | 15.7 | 1020.2 | 0.0 | NW | 0 | 0.0 |
| 08.06.2021 | 00:34 | 16.6 | 95 | 15.8 | 1020.0 | 0.0 | NW | 0 | 0.0 |
| 08.06.2021 | 00:38 | 16.6 | 95 | 15.8 | 1020.0 | 0.0 | NW | 0 | 0.2 |
| 08.06.2021 | 00:44 | 16.4 | 96 | 15.8 | 1019.8 | 0.0 | NNW | 0 | 0.6 |
| 08.06.2021 | 00:48 | 16.3 | 96 | 15.7 | 1019.7 | 0.0 | NNW | 0 | 0.8 |
| 08.06.2021 | 00:54 | 16.3 | 96 | 15.7 | 1019.8 | 0.0 | NNW | 0 | 1.6 |
| 08.06.2021 | 00:58 | 16.3 | 96 | 15.7 | 1019.8 | 0.0 | NNW | 0 | 1.8 |
| 08.06.2021 | 01:04 | 16.4 | 96 | 15.8 | 1019.8 | 0.0 | NNW | 0 | 1.8 |
| 08.06.2021 | 01:08 | 16.6 | 95 | 15.8 | 1019.9 | 0.0 | NNW | 0 | 1.8 |
| 08.06.2021 | 01:14 | 16.5 | 96 | 15.9 | 1019.8 | 0.0 | NNW | 0 | 2.0 |
| 08.06.2021 | 01:18 | 16.3 | 96 | 15.7 | 1019.8 | 0.0 | NNW | 0 | 2.2 |
| 08.06.2021 | 01:24 | 16.3 | 96 | 15.7 | 1019.7 | 0.0 | NNW | 0 | 2.2 |
| 08.06.2021 | 01:28 | 16.2 | 97 | 15.7 | 1019.7 | 0.0 | NNW | 0 | 2.4 |
| 08.06.2021 | 01:34 | 16.3 | 96 | 15.7 | 1019.7 | 0.0 | NNW | 0 | 2.4 |
| 08.06.2021 | 01:38 | 16.3 | 96 | 15.7 | 1019.6 | 0.0 | NNW | 0 | 2.4 |
| 08.06.2021 | 01:44 | 16.3 | 96 | 15.7 | 1019.5 | 0.0 | NNW | 0 | 2.4 |
| 08.06.2021 | 01:48 | 16.3 | 96 | 15.7 | 1019.5 | 0.0 | NNW | 0 | 2.4 |
| 08.06.2021 | 01:54 | 16.2 | 96 | 15.6 | 1019.6 | 0.0 | NNW | 0 | 2.4 |
| 08.06.2021 | 01:58 | 16.1 | 96 | 15.5 | 1019.6 | 0.0 | NNW | 0 | 2.4 |
| 08.06.2021 | 02:04 | 15.9 | 97 | 15.4 | 1019.6 | 0.0 | NNW | 0 | 2.4 |
| 08.06.2021 | 02:08 | 15.9 | 97 | 15.4 | 1019.6 | 0.0 | NNW | 0 | 2.4 |
| 08.06.2021 | 02:14 | 15.9 | 97 | 15.4 | 1019.6 | 0.0 | NNW | 0 | 2.4 |
| 08.06.2021 | 02:18 | 15.9 | 97 | 15.4 | 1019.6 | 0.0 | NNW | 0 | 2.4 |
| 08.06.2021 | 02:24 | 16.1 | 97 | 15.6 | 1019.5 | 0.0 | NNW | 0 | 2.4 |
| 08.06.2021 | 02:28 | 16.1 | 97 | 15.6 | 1019.6 | 0.0 | NNW | 0 | 2.4 |
| 08.06.2021 | 02:34 | 16.0 | 97 | 15.5 | 1019.7 | 0.0 | NNW | 0 | 2.4 |
| 08.06.2021 | 02:38 | 15.9 | 97 | 15.4 | 1019.7 | 0.0 | NNW | 0 | 2.4 |
| 08.06.2021 | 02:44 | 15.8 | 97 | 15.3 | 1019.7 | 0.0 | NNW | 0 | 2.4 |
| 08.06.2021 | 02:48 | 15.8 | 97 | 15.3 | 1019.7 | 0.0 | NNW | 0 | 2.4 |
| 08.06.2021 | 02:54 | 15.9 | 97 | 15.4 | 1019.6 | 0.0 | NNW | 0 | 2.4 |
| 08.06.2021 | 02:58 | 15.9 | 97 | 15.4 | 1019.6 | 0.0 | NNW | 0 | 2.4 |
| 08.06.2021 | 03:04 | 15.8 | 97 | 15.3 | 1019.5 | 0.0 | NNW | 0 | 2.4 |
| 08.06.2021 | 03:08 | 15.8 | 97 | 15.3 | 1019.6 | 0.0 | NNW | 0 | 2.4 |
| 08.06.2021 | 03:14 | 15.8 | 97 | 15.3 | 1019.6 | 0.0 | NNW | 0 | 2.4 |
| 08.06.2021 | 03:18 | 15.9 | 97 | 15.4 | 1019.6 | 0.0 | NNW | 0 | 2.4 |
| 08.06.2021 | 03:24 | 15.9 | 96 | 15.3 | 1019.6 | 0.0 | NNW | 0 | 2.4 |
| 08.06.2021 | 03:28 | 15.9 | 96 | 15.3 | 1019.6 | 0.0 | NNW | 0 | 2.4 |
| 08.06.2021 | 03:34 | 15.9 | 97 | 15.4 | 1019.5 | 0.0 | NNW | 0 | 2.4 |
| 08.06.2021 | 03:38 | 15.9 | 97 | 15.4 | 1019.5 | 0.0 | NNW | 0 | 2.4 |
| 08.06.2021 | 03:44 | 15.9 | 97 | 15.4 | 1019.5 | 0.0 | NNW | 0 | 2.4 |
| 08.06.2021 | 03:48 | 15.9 | 97 | 15.4 | 1019.5 | 0.0 | NNW | 0 | 2.4 |
| 08.06.2021 | 03:54 | 15.8 | 97 | 15.3 | 1019.6 | 0.0 | NNW | 0 | 2.4 |
| 08.06.2021 | 03:58 | 15.8 | 97 | 15.3 | 1019.6 | 0.0 | NNW | 0 | 2.4 |
| 08.06.2021 | 04:04 | 15.9 | 97 | 15.4 | 1019.6 | 0.0 | NNW | 0 | 2.4 |
| 08.06.2021 | 04:08 | 15.9 | 97 | 15.4 | 1019.6 | 0.0 | NNW | 0 | 2.4 |
| 08.06.2021 | 04:14 | 15.8 | 97 | 15.3 | 1019.7 | 0.0 | NNW | 0 | 2.4 |
| 08.06.2021 | 04:18 | 15.9 | 97 | 15.4 | 1019.7 | 0.0 | NNW | 0 | 2.4 |
| 08.06.2021 | 04:24 | 15.8 | 97 | 15.3 | 1019.7 | 0.0 | NNW | 0 | 2.4 |
| 08.06.2021 | 04:28 | 15.8 | 97 | 15.3 | 1019.8 | 0.0 | NNW | 0 | 2.4 |
| 08.06.2021 | 04:34 | 15.8 | 97 | 15.3 | 1019.8 | 0.0 | NNW | 0 | 2.4 |
| 08.06.2021 | 04:38 | 15.8 | 97 | 15.3 | 1019.8 | 0.0 | NNW | 0 | 2.4 |
| 08.06.2021 | 04:44 | 15.8 | 97 | 15.3 | 1019.7 | 0.0 | NNW | 0 | 2.4 |
| 08.06.2021 | 04:48 | 15.7 | 97 | 15.2 | 1019.6 | 0.0 | NNW | 0 | 2.4 |
| 08.06.2021 | 04:54 | 15.7 | 97 | 15.2 | 1019.7 | 0.0 | NNW | 0 | 2.4 |
| 08.06.2021 | 04:58 | 15.7 | 97 | 15.2 | 1019.7 | 0.0 | NNW | 0 | 2.4 |
| 08.06.2021 | 05:04 | 15.7 | 97 | 15.2 | 1019.7 | 0.0 | NNW | 0 | 2.4 |
| 08.06.2021 | 05:08 | 15.7 | 97 | 15.2 | 1019.9 | 0.0 | NNW | 0 | 2.4 |
| 08.06.2021 | 05:14 | 15.6 | 97 | 15.1 | 1019.8 | 0.0 | NNW | 0 | 2.4 |
| 08.06.2021 | 05:18 | 15.6 | 97 | 15.1 | 1019.8 | 0.0 | NNW | 0 | 2.4 |
| 08.06.2021 | 05:24 | 15.6 | 98 | 15.3 | 1019.8 | 0.0 | NNW | 0 | 2.4 |
| 08.06.2021 | 05:28 | 15.6 | 98 | 15.3 | 1019.9 | 0.0 | NNW | 0 | 2.4 |
| 08.06.2021 | 05:34 | 15.6 | 98 | 15.3 | 1019.9 | 0.0 | NNW | 0 | 2.4 |
| 08.06.2021 | 05:38 | 15.7 | 98 | 15.4 | 1019.8 | 0.0 | NNW | 5 | 2.4 |
| 08.06.2021 | 05:44 | 15.7 | 97 | 15.2 | 1019.9 | 0.0 | NNW | 7 | 2.4 |
| 08.06.2021 | 05:48 | 15.7 | 97 | 15.2 | 1019.9 | 0.0 | NNW | 11 | 2.4 |
| 08.06.2021 | 05:54 | 15.7 | 97 | 15.2 | 1019.9 | 0.0 | NNW | 14 | 2.4 |
| 08.06.2021 | 05:58 | 15.7 | 96 | 15.1 | 1019.9 | 0.0 | NNW | 14 | 2.4 |
| 08.06.2021 | 06:04 | 15.7 | 97 | 15.2 | 1020.0 | 0.0 | NNW | 16 | 2.6 |
| 08.06.2021 | 06:08 | 15.7 | 97 | 15.2 | 1020.0 | 0.0 | NNW | 18 | 2.6 |
| 08.06.2021 | 06:14 | 15.8 | 97 | 15.3 | 1019.9 | 0.0 | NNW | 19 | 2.6 |
| 08.06.2021 | 06:18 | 15.8 | 97 | 15.3 | 1020.0 | 0.0 | NNW | 23 | 2.6 |
| 08.06.2021 | 06:24 | 15.8 | 96 | 15.2 | 1020.1 | 0.0 | NNW | 23 | 2.6 |
| 08.06.2021 | 06:28 | 15.8 | 96 | 15.2 | 1020.0 | 0.0 | NNW | 23 | 2.6 |
| 08.06.2021 | 06:34 | 15.8 | 97 | 15.3 | 1020.0 | 0.0 | S | 25 | 2.6 |
| 08.06.2021 | 06:38 | 15.8 | 97 | 15.3 | 1020.0 | 0.0 | S | 23 | 2.6 |
| 08.06.2021 | 06:44 | 15.9 | 97 | 15.4 | 1020.0 | 0.0 | NW | 32 | 2.6 |
| 08.06.2021 | 06:48 | 15.9 | 97 | 15.4 | 1020.0 | 0.0 | NNW | 42 | 2.6 |
| 08.06.2021 | 06:54 | 15.9 | 97 | 15.4 | 1020.0 | 0.0 | S | 47 | 2.6 |
| 08.06.2021 | 06:58 | 16.0 | 96 | 15.4 | 1020.0 | 0.0 | S | 42 | 2.6 |
| 08.06.2021 | 07:04 | 16.1 | 96 | 15.5 | 1020.0 | 0.0 | N | 44 | 2.6 |
| 08.06.2021 | 07:08 | 16.1 | 96 | 15.5 | 1020.0 | 0.0 | N | 53 | 2.6 |
| 08.06.2021 | 07:14 | 16.1 | 96 | 15.5 | 1020.1 | 0.0 | N | 58 | 2.6 |
| 08.06.2021 | 07:18 | 16.2 | 96 | 15.6 | 1020.1 | 0.0 | N | 63 | 2.6 |
| 08.06.2021 | 07:24 | 16.2 | 96 | 15.6 | 1020.1 | 0.0 | N | 65 | 2.6 |
| 08.06.2021 | 07:28 | 16.2 | 95 | 15.4 | 1020.2 | 0.0 | N | 63 | 2.6 |
| 08.06.2021 | 07:34 | 16.3 | 96 | 15.7 | 1020.2 | 0.0 | N | 77 | 2.6 |
| 08.06.2021 | 07:38 | 16.3 | 96 | 15.7 | 1020.1 | 0.0 | N | 81 | 2.6 |
| 08.06.2021 | 07:44 | 16.5 | 96 | 15.9 | 1020.2 | 0.0 | N | 91 | 2.6 |
| 08.06.2021 | 07:48 | 16.6 | 95 | 15.8 | 1020.3 | 0.0 | N | 102 | 2.6 |
| 08.06.2021 | 07:54 | 16.7 | 95 | 15.9 | 1020.3 | 0.0 | NNO | 123 | 2.6 |
| 08.06.2021 | 07:58 | 16.8 | 96 | 16.2 | 1020.3 | 0.0 | NNO | 120 | 2.6 |
| 08.06.2021 | 08:04 | 16.8 | 95 | 16.0 | 1020.3 | 0.0 | NNO | 127 | 2.6 |
| 08.06.2021 | 08:08 | 16.9 | 94 | 15.9 | 1020.3 | 0.0 | NNO | 135 | 2.6 |
| 08.06.2021 | 08:14 | 17.0 | 95 | 16.2 | 1020.3 | 0.0 | NNO | 135 | 2.6 |
| 08.06.2021 | 08:18 | 17.1 | 94 | 16.1 | 1020.4 | 0.0 | NO | 130 | 2.6 |
| 08.06.2021 | 08:24 | 17.1 | 94 | 16.1 | 1020.4 | 0.0 | NO | 109 | 2.6 |
| 08.06.2021 | 08:28 | 17.2 | 94 | 16.2 | 1020.4 | 0.0 | OSO | 111 | 2.6 |
| 08.06.2021 | 08:34 | 17.2 | 94 | 16.2 | 1020.4 | 0.0 | N | 128 | 2.6 |
| 08.06.2021 | 08:38 | 17.2 | 94 | 16.2 | 1020.4 | 0.0 | NO | 123 | 2.6 |
| 08.06.2021 | 08:44 | 17.3 | 94 | 16.3 | 1020.4 | 0.0 | NO | 169 | 2.6 |
| 08.06.2021 | 08:48 | 17.3 | 93 | 16.2 | 1020.4 | 0.0 | NO | 179 | 2.6 |
| 08.06.2021 | 08:54 | 17.4 | 93 | 16.3 | 1020.5 | 0.0 | NNO | 190 | 2.6 |
| 08.06.2021 | 08:58 | 17.6 | 93 | 16.5 | 1020.6 | 0.0 | NNO | 272 | 2.6 |
| 08.06.2021 | 09:04 | 17.8 | 93 | 16.7 | 1020.5 | 0.0 | NNO | 295 | 2.6 |
| 08.06.2021 | 09:08 | 17.9 | 93 | 16.8 | 1020.5 | 0.0 | NNO | 250 | 2.6 |
| 08.06.2021 | 09:14 | 17.9 | 91 | 16.4 | 1020.5 | 0.0 | N | 207 | 2.6 |
| 08.06.2021 | 09:18 | 17.9 | 91 | 16.4 | 1020.5 | 0.0 | N | 190 | 2.6 |
| 08.06.2021 | 09:24 | 17.9 | 92 | 16.6 | 1020.5 | 0.0 | N | 253 | 2.6 |
| 08.06.2021 | 09:28 | 18.1 | 91 | 16.6 | 1020.4 | 0.0 | N | 343 | 2.6 |
| 08.06.2021 | 09:34 | 18.2 | 91 | 16.7 | 1020.4 | 1.4 | N | 316 | 2.6 |
| 08.06.2021 | 09:38 | 18.2 | 90 | 16.5 | 1020.4 | 1.4 | N | 290 | 2.6 |
| 08.06.2021 | 09:44 | 18.3 | 90 | 16.6 | 1020.4 | 0.0 | NNW | 283 | 2.6 |
| 08.06.2021 | 09:48 | 18.4 | 89 | 16.6 | 1020.4 | 1.4 | NNW | 304 | 2.6 |
| 08.06.2021 | 09:54 | 18.5 | 90 | 16.8 | 1020.5 | 0.0 | NNW | 334 | 2.6 |
| 08.06.2021 | 09:58 | 18.6 | 89 | 16.8 | 1020.5 | 0.0 | NW | 341 | 2.6 |
| 08.06.2021 | 10:04 | 18.7 | 89 | 16.8 | 1020.5 | 0.0 | N | 257 | 2.6 |
| 08.06.2021 | 10:08 | 18.8 | 88 | 16.8 | 1020.5 | 0.0 | NNW | 295 | 2.6 |
| 08.06.2021 | 10:14 | 18.8 | 89 | 16.9 | 1020.4 | 0.0 | NNW | 357 | 2.6 |
| 08.06.2021 | 10:18 | 18.8 | 88 | 16.8 | 1020.4 | 0.0 | NNW | 330 | 2.6 |
| 08.06.2021 | 10:24 | 18.9 | 87 | 16.7 | 1020.4 | 0.0 | NNW | 362 | 2.6 |
| 08.06.2021 | 10:28 | 19.1 | 88 | 17.1 | 1020.4 | 0.0 | N | 299 | 2.6 |
| 08.06.2021 | 10:34 | 19.1 | 87 | 16.9 | 1020.4 | 0.0 | NNW | 237 | 2.6 |
| 08.06.2021 | 10:38 | 19.1 | 87 | 16.9 | 1020.3 | 0.0 | NNW | 306 | 2.6 |
| 08.06.2021 | 10:44 | 19.4 | 86 | 17.0 | 1020.3 | 0.0 | NW | 355 | 2.6 |
| 08.06.2021 | 10:48 | 19.6 | 86 | 17.2 | 1020.3 | 0.0 | NNW | 387 | 2.6 |
| 08.06.2021 | 10:54 | 19.7 | 86 | 17.3 | 1020.3 | 0.0 | NNW | 457 | 2.6 |
| 08.06.2021 | 10:58 | 19.9 | 84 | 17.1 | 1020.3 | 0.0 | NNW | 353 | 2.6 |
| 08.06.2021 | 11:04 | 19.8 | 85 | 17.2 | 1020.2 | 0.0 | NO | 357 | 2.6 |
| 08.06.2021 | 11:08 | 19.7 | 85 | 17.1 | 1020.2 | 1.4 | NO | 369 | 2.6 |
| 08.06.2021 | 11:14 | 19.9 | 84 | 17.1 | 1020.1 | 0.0 | NNW | 359 | 2.6 |
| 08.06.2021 | 11:18 | 19.9 | 84 | 17.1 | 1020.2 | 0.0 | NNW | 276 | 2.6 |
| 08.06.2021 | 11:24 | 20.1 | 85 | 17.5 | 1020.2 | 0.0 | NW | 322 | 2.6 |
| 08.06.2021 | 11:28 | 20.1 | 85 | 17.5 | 1020.3 | 1.4 | NNW | 346 | 2.6 |
| 08.06.2021 | 11:34 | 20.1 | 84 | 17.3 | 1020.3 | 1.4 | N | 250 | 2.6 |
| 08.06.2021 | 11:38 | 20.0 | 83 | 17.0 | 1020.3 | 0.0 | N | 295 | 2.6 |
| 08.06.2021 | 11:44 | 20.3 | 85 | 17.7 | 1020.4 | 0.0 | N | 316 | 2.6 |
| 08.06.2021 | 11:48 | 20.3 | 81 | 16.9 | 1020.4 | 0.0 | N | 364 | 2.6 |
| 08.06.2021 | 11:54 | 20.4 | 83 | 17.4 | 1020.4 | 0.0 | N | 313 | 2.6 |
| 08.06.2021 | 11:58 | 20.5 | 84 | 17.7 | 1020.4 | 0.0 | NNW | 325 | 2.6 |
| 08.06.2021 | 12:04 | 20.4 | 83 | 17.4 | 1020.4 | 0.0 | NNW | 315 | 2.6 |
| 08.06.2021 | 12:08 | 20.4 | 83 | 17.4 | 1020.4 | 0.0 | NNW | 316 | 2.6 |
| 08.06.2021 | 12:14 | 20.6 | 82 | 17.4 | 1020.4 | 0.0 | NNW | 302 | 2.6 |
| 08.06.2021 | 12:18 | 20.6 | 82 | 17.4 | 1020.4 | 0.0 | NW | 290 | 2.6 |
| 08.06.2021 | 12:24 | 20.7 | 83 | 17.7 | 1020.4 | 0.0 | NW | 431 | 2.6 |
| 08.06.2021 | 12:28 | 20.7 | 81 | 17.3 | 1020.4 | 0.0 | NW | 415 | 2.6 |
| 08.06.2021 | 12:34 | 20.9 | 82 | 17.7 | 1020.3 | 0.0 | NW | 439 | 2.6 |
| 08.06.2021 | 12:38 | 21.2 | 82 | 18.0 | 1020.3 | 1.4 | NW | 371 | 2.6 |
| 08.06.2021 | 12:44 | 21.1 | 80 | 17.5 | 1020.3 | 1.4 | NNW | 381 | 2.6 |
| 08.06.2021 | 12:48 | 21.2 | 79 | 17.4 | 1020.3 | 0.0 | N | 399 | 2.6 |
| 08.06.2021 | 12:54 | 21.3 | 81 | 17.9 | 1020.1 | 0.0 | N | 385 | 2.6 |
| 08.06.2021 | 12:58 | 21.3 | 78 | 17.3 | 1020.1 | 0.0 | NO | 343 | 2.6 |
| 08.06.2021 | 13:04 | 21.2 | 79 | 17.4 | 1020.2 | 0.0 | NO | 269 | 2.6 |
| 08.06.2021 | 13:08 | 21.2 | 80 | 17.6 | 1020.2 | 0.0 | NNO | 327 | 2.6 |
| 08.06.2021 | 13:14 | 21.2 | 80 | 17.6 | 1020.1 | 0.0 | NNO | 369 | 2.6 |
| 08.06.2021 | 13:18 | 21.4 | 79 | 17.6 | 1020.0 | 0.0 | NNO | 299 | 2.6 |
| 08.06.2021 | 13:24 | 21.3 | 80 | 17.7 | 1020.1 | 0.0 | NNO | 234 | 2.6 |
| 08.06.2021 | 13:28 | 21.4 | 81 | 18.0 | 1020.1 | 0.0 | NNO | 309 | 2.6 |
| 08.06.2021 | 13:34 | 21.5 | 79 | 17.7 | 1020.0 | 0.0 | NNO | 464 | 2.6 |
| 08.06.2021 | 13:38 | 21.6 | 78 | 17.6 | 1020.0 | 0.0 | NO | 450 | 2.6 |
| 08.06.2021 | 13:44 | 21.7 | 80 | 18.1 | 1020.0 | 0.0 | NO | 468 | 2.6 |
| 08.06.2021 | 13:48 | 21.8 | 79 | 18.0 | 1019.9 | 0.0 | NO | 445 | 2.6 |
| 08.06.2021 | 13:54 | 21.8 | 78 | 17.8 | 1019.9 | 0.0 | NO | 392 | 2.6 |
| 08.06.2021 | 13:58 | 21.8 | 79 | 18.0 | 1019.8 | 0.0 | NO | 336 | 2.6 |
| 08.06.2021 | 14:04 | 21.5 | 79 | 17.7 | 1019.8 | 0.0 | NO | 554 | 2.6 |
| 08.06.2021 | 14:08 | 22.2 | 79 | 18.4 | 1019.7 | 0.0 | NO | 606 | 2.6 |
| 08.06.2021 | 14:14 | 22.3 | 78 | 18.3 | 1019.7 | 0.0 | NO | 429 | 2.6 |
| 08.06.2021 | 14:18 | 22.3 | 77 | 18.1 | 1019.7 | 0.0 | NO | 343 | 2.6 |
| 08.06.2021 | 14:24 | 22.3 | 75 | 17.7 | 1019.6 | 0.0 | O | 399 | 2.6 |
| 08.06.2021 | 14:28 | 22.5 | 76 | 18.1 | 1019.6 | 0.0 | NNW | 373 | 2.6 |
| 08.06.2021 | 14:34 | 22.6 | 76 | 18.2 | 1019.5 | 1.4 | ONO | 557 | 2.6 |
| 08.06.2021 | 14:38 | 22.7 | 76 | 18.2 | 1019.5 | 1.4 | ONO | 526 | 2.6 |
| 08.06.2021 | 14:44 | 22.8 | 76 | 18.3 | 1019.4 | 1.4 | NNO | 399 | 2.6 |
| 08.06.2021 | 14:48 | 22.7 | 74 | 17.8 | 1019.4 | 1.4 | NO | 380 | 2.6 |
| 08.06.2021 | 14:54 | 22.9 | 74 | 18.0 | 1019.3 | 3.2 | N | 469 | 2.6 |
| 08.06.2021 | 14:58 | 23.3 | 74 | 18.4 | 1019.3 | 4.7 | N | 777 | 2.6 |
| 08.06.2021 | 15:04 | 23.2 | 73 | 18.1 | 1019.3 | 4.7 | N | 765 | 2.6 |
| 08.06.2021 | 15:08 | 23.7 | 72 | 18.4 | 1019.2 | 3.2 | NO | 849 | 2.6 |
| 08.06.2021 | 15:14 | 23.3 | 72 | 18.0 | 1019.2 | 6.5 | N | 471 | 2.6 |
| 08.06.2021 | 15:18 | 23.6 | 73 | 18.5 | 1019.2 | 7.9 | NNW | 1000 | 2.6 |
| 08.06.2021 | 15:24 | 23.9 | 68 | 17.6 | 1019.2 | 9.7 | N | 991 | 2.6 |
| 08.06.2021 | 15:28 | 24.1 | 69 | 18.1 | 1019.2 | 7.9 | NNO | 807 | 2.6 |
| 08.06.2021 | 15:34 | 24.0 | 69 | 18.0 | 1019.2 | 4.7 | N | 318 | 2.6 |
| 08.06.2021 | 15:38 | 23.4 | 72 | 18.1 | 1019.2 | 3.2 | NNO | 311 | 2.6 |
| 08.06.2021 | 15:44 | 23.7 | 70 | 17.9 | 1019.2 | 6.5 | NNW | 877 | 2.6 |
| 08.06.2021 | 15:48 | 23.9 | 69 | 17.9 | 1019.1 | 4.7 | NNO | 875 | 2.6 |
| 08.06.2021 | 15:54 | 23.7 | 70 | 17.9 | 1019.1 | 3.2 | NNW | 315 | 2.6 |
| 08.06.2021 | 15:58 | 23.3 | 69 | 17.3 | 1019.0 | 4.7 | ONO | 343 | 2.6 |
| 08.06.2021 | 16:04 | 23.6 | 72 | 18.3 | 1018.9 | 1.4 | NNO | 415 | 2.6 |
| 08.06.2021 | 16:08 | 23.7 | 69 | 17.7 | 1018.9 | 0.0 | NNO | 281 | 2.6 |
| 08.06.2021 | 16:14 | 23.5 | 69 | 17.5 | 1018.9 | 3.2 | ONO | 202 | 2.6 |
| 08.06.2021 | 16:18 | 23.3 | 70 | 17.5 | 1019.0 | 4.7 | NNO | 188 | 2.6 |
| 08.06.2021 | 16:24 | 22.9 | 70 | 17.1 | 1019.0 | 4.7 | N | 248 | 2.6 |
| 08.06.2021 | 16:28 | 23.0 | 72 | 17.7 | 1018.9 | 1.4 | N | 320 | 2.6 |
| 08.06.2021 | 16:34 | 23.6 | 69 | 17.6 | 1018.9 | 0.0 | ONO | 439 | 2.6 |
| 08.06.2021 | 16:38 | 23.8 | 68 | 17.5 | 1018.8 | 1.4 | ONO | 647 | 2.6 |
| 08.06.2021 | 16:44 | 23.8 | 69 | 17.8 | 1018.8 | 3.2 | NNO | 608 | 2.6 |
| 08.06.2021 | 16:48 | 23.9 | 69 | 17.9 | 1018.7 | 3.2 | N | 327 | 2.6 |
| 08.06.2021 | 16:54 | 24.1 | 69 | 18.1 | 1018.6 | 1.4 | ONO | 615 | 2.6 |
| 08.06.2021 | 16:58 | 23.9 | 68 | 17.6 | 1018.6 | 4.7 | NNO | 202 | 2.6 |
| 08.06.2021 | 17:04 | 23.3 | 70 | 17.5 | 1018.6 | 3.2 | NNO | 169 | 2.6 |
| 08.06.2021 | 17:08 | 23.2 | 71 | 17.6 | 1018.6 | 1.4 | NNW | 181 | 2.6 |
| 08.06.2021 | 17:14 | 23.8 | 68 | 17.5 | 1018.5 | 1.4 | NO | 555 | 2.6 |
| 08.06.2021 | 17:18 | 23.9 | 67 | 17.4 | 1018.4 | 1.4 | NNO | 503 | 2.6 |
| 08.06.2021 | 17:24 | 24.1 | 68 | 17.8 | 1018.4 | 1.4 | ONO | 545 | 2.6 |
| 08.06.2021 | 17:28 | 24.1 | 66 | 17.3 | 1018.4 | 1.4 | NO | 216 | 2.6 |
| 08.06.2021 | 17:34 | 24.4 | 65 | 17.4 | 1018.4 | 3.2 | NNO | 529 | 2.6 |
| 08.06.2021 | 17:38 | 24.4 | 66 | 17.6 | 1018.4 | 4.7 | NNO | 559 | 2.6 |
| 08.06.2021 | 17:44 | 24.8 | 65 | 17.8 | 1018.3 | 4.7 | NNO | 499 | 2.6 |
| 08.06.2021 | 17:48 | 24.8 | 66 | 18.0 | 1018.3 | 6.5 | N | 475 | 2.6 |
| 08.06.2021 | 17:54 | 24.4 | 64 | 17.1 | 1018.3 | 6.5 | N | 462 | 2.6 |
| 08.06.2021 | 17:58 | 24.4 | 64 | 17.1 | 1018.4 | 4.7 | NNW | 439 | 2.6 |
| 08.06.2021 | 18:04 | 24.5 | 64 | 17.2 | 1018.4 | 4.7 | NNW | 425 | 2.6 |
| 08.06.2021 | 18:08 | 24.2 | 64 | 17.0 | 1018.4 | 4.7 | N | 387 | 2.6 |
| 08.06.2021 | 18:14 | 24.1 | 65 | 17.1 | 1018.4 | 6.5 | N | 304 | 2.6 |
| 08.06.2021 | 18:18 | 24.2 | 65 | 17.2 | 1018.4 | 6.5 | N | 271 | 2.6 |
| 08.06.2021 | 18:24 | 24.0 | 67 | 17.5 | 1018.4 | 4.7 | NNW | 269 | 2.6 |
| 08.06.2021 | 18:28 | 23.8 | 68 | 17.5 | 1018.4 | 4.7 | NNW | 221 | 2.6 |
| 08.06.2021 | 18:34 | 23.8 | 68 | 17.5 | 1018.3 | 1.4 | NNO | 181 | 2.6 |
| 08.06.2021 | 18:38 | 23.7 | 69 | 17.7 | 1018.3 | 1.4 | N | 165 | 2.6 |
| 08.06.2021 | 18:44 | 23.4 | 69 | 17.4 | 1018.4 | 1.4 | NNW | 165 | 2.6 |
| 08.06.2021 | 18:48 | 23.3 | 70 | 17.5 | 1018.4 | 1.4 | N | 137 | 2.6 |
| 08.06.2021 | 18:54 | 23.2 | 70 | 17.4 | 1018.4 | 0.0 | NNW | 149 | 2.6 |
| 08.06.2021 | 18:58 | 23.2 | 70 | 17.4 | 1018.4 | 1.4 | NNW | 113 | 2.6 |
| 08.06.2021 | 19:04 | 22.9 | 70 | 17.1 | 1018.5 | 3.2 | NNW | 97 | 2.6 |
| 08.06.2021 | 19:08 | 22.8 | 71 | 17.3 | 1018.5 | 3.2 | NNW | 97 | 2.6 |
| 08.06.2021 | 19:14 | 22.6 | 72 | 17.3 | 1018.6 | 1.4 | NW | 102 | 2.6 |
| 08.06.2021 | 19:18 | 22.6 | 73 | 17.5 | 1018.6 | 0.0 | N | 142 | 2.6 |
| 08.06.2021 | 19:24 | 22.7 | 71 | 17.2 | 1018.5 | 0.0 | N | 153 | 2.6 |
| 08.06.2021 | 19:28 | 22.7 | 71 | 17.2 | 1018.4 | 0.0 | N | 169 | 2.6 |
| 08.06.2021 | 19:34 | 22.8 | 71 | 17.3 | 1018.4 | 0.0 | N | 160 | 2.6 |
| 08.06.2021 | 19:38 | 22.9 | 69 | 16.9 | 1018.4 | 0.0 | N | 158 | 2.6 |
| 08.06.2021 | 19:44 | 22.8 | 71 | 17.3 | 1018.5 | 0.0 | NNW | 130 | 2.6 |
| 08.06.2021 | 19:48 | 22.7 | 71 | 17.2 | 1018.6 | 0.0 | NNW | 113 | 2.6 |
| 08.06.2021 | 19:54 | 22.4 | 72 | 17.1 | 1018.5 | 0.0 | NNW | 91 | 2.6 |
| 08.06.2021 | 19:58 | 22.3 | 72 | 17.0 | 1018.6 | 0.0 | NW | 84 | 2.6 |
| 08.06.2021 | 20:04 | 22.2 | 73 | 17.1 | 1018.6 | 0.0 | WNW | 79 | 2.6 |
| 08.06.2021 | 20:08 | 22.2 | 73 | 17.1 | 1018.7 | 0.0 | NNO | 77 | 2.6 |
| 08.06.2021 | 20:14 | 22.3 | 73 | 17.2 | 1018.7 | 1.4 | N | 77 | 2.6 |
| 08.06.2021 | 20:18 | 22.2 | 75 | 17.6 | 1018.6 | 1.4 | N | 70 | 2.6 |
| 08.06.2021 | 20:24 | 22.1 | 76 | 17.7 | 1018.8 | 0.0 | NNO | 58 | 2.6 |
| 08.06.2021 | 20:28 | 22.1 | 76 | 17.7 | 1018.8 | 0.0 | NNO | 53 | 2.6 |
| 08.06.2021 | 20:34 | 21.9 | 76 | 17.5 | 1018.8 | 0.0 | N | 46 | 2.6 |
| 08.06.2021 | 20:38 | 21.8 | 77 | 17.6 | 1018.9 | 0.0 | NNO | 44 | 2.6 |
| 08.06.2021 | 20:44 | 21.8 | 76 | 17.4 | 1019.0 | 0.0 | NNO | 32 | 2.6 |
| 08.06.2021 | 20:48 | 21.7 | 77 | 17.5 | 1019.0 | 0.0 | NNO | 26 | 2.6 |
| 08.06.2021 | 20:54 | 21.6 | 77 | 17.4 | 1019.0 | 0.0 | NNO | 21 | 2.6 |
| 08.06.2021 | 20:58 | 21.4 | 77 | 17.2 | 1018.9 | 0.0 | NNO | 16 | 2.6 |
| 08.06.2021 | 21:04 | 21.3 | 77 | 17.1 | 1019.0 | 0.0 | NNO | 9 | 2.6 |
| 08.06.2021 | 21:08 | 21.3 | 79 | 17.5 | 1019.2 | 0.0 | NNO | 5 | 2.6 |
| 08.06.2021 | 21:14 | 20.9 | 76 | 16.5 | 1019.5 | 7.9 | ONO | 0 | 2.6 |
| 08.06.2021 | 21:18 | 20.3 | 82 | 17.1 | 1019.7 | 14.4 | ONO | 5 | 2.6 |
| 08.06.2021 | 21:24 | 18.4 | 84 | 15.6 | 1020.0 | 20.9 | NO | 5 | 7.4 |
| 08.06.2021 | 21:28 | 17.3 | 82 | 14.2 | 1020.0 | 24.1 | O | 5 | 12.2 |
| 08.06.2021 | 21:34 | 17.5 | 84 | 14.8 | 1019.6 | 24.1 | ONO | 0 | 24.4 |
| 08.06.2021 | 21:38 | 17.1 | 87 | 14.9 | 1019.6 | 3.2 | N | 0 | 33.2 |
| 08.06.2021 | 21:44 | 16.4 | 91 | 14.9 | 1019.7 | 1.4 | N | 0 | 34.4 |
| 08.06.2021 | 21:48 | 16.4 | 92 | 15.1 | 1019.7 | 0.0 | N | 0 | 35.0 |
| 08.06.2021 | 21:54 | 16.2 | 93 | 15.1 | 1019.9 | 0.0 | N | 0 | 35.6 |
| 08.06.2021 | 21:58 | 16.1 | 93 | 15.0 | 1020.0 | 0.0 | N | 0 | 35.8 |
| 08.06.2021 | 22:04 | 16.0 | 95 | 15.2 | 1019.8 | 0.0 | N | 0 | 36.0 |
| 08.06.2021 | 22:08 | 16.0 | 95 | 15.2 | 1019.8 | 0.0 | N | 0 | 36.2 |
| 08.06.2021 | 22:14 | 16.1 | 94 | 15.1 | 1019.7 | 0.0 | N | 0 | 36.2 |
| 08.06.2021 | 22:18 | 16.1 | 94 | 15.1 | 1019.7 | 0.0 | N | 0 | 36.4 |
| 08.06.2021 | 22:24 | 16.1 | 95 | 15.3 | 1019.6 | 0.0 | N | 0 | 36.4 |
| 08.06.2021 | 22:28 | 16.1 | 95 | 15.3 | 1019.6 | 0.0 | N | 0 | 36.6 |
| 08.06.2021 | 22:34 | 16.2 | 95 | 15.4 | 1019.6 | 0.0 | N | 0 | 36.6 |
| 08.06.2021 | 22:38 | 16.3 | 95 | 15.5 | 1019.6 | 0.0 | N | 0 | 36.6 |
| 08.06.2021 | 22:44 | 16.4 | 96 | 15.8 | 1019.7 | 0.0 | N | 0 | 36.8 |
| 08.06.2021 | 22:48 | 16.6 | 95 | 15.8 | 1019.7 | 0.0 | N | 0 | 36.8 |
| 08.06.2021 | 22:54 | 16.6 | 95 | 15.8 | 1019.8 | 0.0 | N | 0 | 37.0 |
| 08.06.2021 | 22:58 | 16.5 | 96 | 15.9 | 1019.9 | 0.0 | NW | 0 | 37.0 |
| 08.06.2021 | 23:04 | 16.5 | 96 | 15.9 | 1020.0 | 0.0 | NW | 0 | 37.2 |
| 08.06.2021 | 23:08 | 16.6 | 96 | 16.0 | 1020.0 | 0.0 | NW | 0 | 37.4 |
| 08.06.2021 | 23:14 | 16.5 | 96 | 15.9 | 1020.0 | 0.0 | NW | 0 | 37.4 |
| 08.06.2021 | 23:18 | 16.5 | 96 | 15.9 | 1020.0 | 0.0 | NW | 0 | 37.6 |
| 08.06.2021 | 23:24 | 16.5 | 96 | 15.9 | 1019.9 | 0.0 | NW | 0 | 37.6 |
| 08.06.2021 | 23:28 | 16.5 | 96 | 15.9 | 1019.9 | 0.0 | NW | 0 | 37.8 |
| 08.06.2021 | 23:34 | 16.4 | 96 | 15.8 | 1019.9 | 0.0 | NW | 0 | 38.0 |
| 08.06.2021 | 23:38 | 16.4 | 97 | 15.9 | 1020.0 | 0.0 | NW | 0 | 38.2 |
| 08.06.2021 | 23:44 | 16.4 | 97 | 15.9 | 1020.0 | 0.0 | NW | 0 | 38.4 |
| 08.06.2021 | 23:48 | 16.4 | 97 | 15.9 | 1019.9 | 0.0 | NW | 0 | 38.6 |
| 08.06.2021 | 23:54 | 16.5 | 97 | 16.0 | 1020.1 | 0.0 | ONO | 0 | 38.6 |
| 08.06.2021 | 23:58 | 16.5 | 97 | 16.0 | 1020.0 | 0.0 | ONO | 0 | 38.6 |